sensor_id;sensor_type;location;lat;lon;timestamp;temperature;humidity
26272;DHT22;13997;48.902;12.472;2023-04-01T00:00:58;230.50;2252.80
26272;DHT22;13997;48.902;12.472;2023-04-01T00:03:24;230.50;2252.80
26272;DHT22;13997;48.902;12.472;2023-04-01T00:05:51;230.50;2252.80
26272;DHT22;13997;48.902;12.472;2023-04-01T00:08:18;230.50;2252.80
26272;DHT22;13997;48.902;12.472;2023-04-01T00:10:44;230.50;2252.80
26272;DHT22;13997;48.902;12.472;2023-04-01T00:13:10;230.50;2252.80
26272;DHT22;13997;48.902;12.472;2023-04-01T00:15:36;230.50;2252.80
26272;DHT22;13997;48.902;12.472;2023-04-01T00:18:02;230.50;2252.80
26272;DHT22;13997;48.902;12.472;2023-04-01T00:20:28;230.50;2252.80
26272;DHT22;13997;48.902;12.472;2023-04-01T00:22:54;230.40;2252.80
26272;DHT22;13997;48.902;12.472;2023-04-01T00:25:20;230.40;2252.80
26272;DHT22;13997;48.902;12.472;2023-04-01T00:27:46;230.40;2252.80
26272;DHT22;13997;48.902;12.472;2023-04-01T00:30:12;230.40;2252.80
26272;DHT22;13997;48.902;12.472;2023-04-01T00:32:38;230.40;2252.80
26272;DHT22;13997;48.902;12.472;2023-04-01T00:35:04;230.40;2252.80
26272;DHT22;13997;48.902;12.472;2023-04-01T00:37:30;230.40;2252.80
26272;DHT22;13997;48.902;12.472;2023-04-01T00:39:56;205.70;2252.80
26272;DHT22;13997;48.902;12.472;2023-04-01T00:42:22;205.70;2252.80
26272;DHT22;13997;48.902;12.472;2023-04-01T00:44:51;205.70;2252.80
26272;DHT22;13997;48.902;12.472;2023-04-01T00:47:17;205.70;2252.80
26272;DHT22;13997;48.902;12.472;2023-04-01T00:49:45;205.70;2252.80
26272;DHT22;13997;48.902;12.472;2023-04-01T00:52:15;205.70;2252.80
26272;DHT22;13997;48.902;12.472;2023-04-01T00:54:45;205.70;2252.80
26272;DHT22;13997;48.902;12.472;2023-04-01T00:57:15;205.70;2252.80
26272;DHT22;13997;48.902;12.472;2023-04-01T00:59:46;205.70;2252.80
26272;DHT22;13997;48.902;12.472;2023-04-01T01:02:14;205.70;2252.80
26272;DHT22;13997;48.902;12.472;2023-04-01T01:04:41;205.70;2252.80
26272;DHT22;13997;48.902;12.472;2023-04-01T01:18:09;205.70;2252.80
26272;DHT22;13997;48.902;12.472;2023-04-01T01:20:48;205.70;2252.80
26272;DHT22;13997;48.902;12.472;2023-04-01T01:26:04;205.70;2252.80
26272;DHT22;13997;48.902;12.472;2023-04-01T01:28:59;205.70;2252.80
26272;DHT22;13997;48.902;12.472;2023-04-01T01:31:37;205.70;2252.80
26272;DHT22;13997;48.902;12.472;2023-04-01T01:36:44;205.70;2252.80
26272;DHT22;13997;48.902;12.472;2023-04-01T01:39:12;205.70;2252.80
26272;DHT22;13997;48.902;12.472;2023-04-01T01:41:41;205.70;2252.80
26272;DHT22;13997;48.902;12.472;2023-04-01T01:44:09;205.70;2252.80
26272;DHT22;13997;48.902;12.472;2023-04-01T01:46:38;205.70;2252.80
26272;DHT22;13997;48.902;12.472;2023-04-01T01:49:07;205.70;2252.80
26272;DHT22;13997;48.902;12.472;2023-04-01T01:51:35;205.70;2252.80
26272;DHT22;13997;48.902;12.472;2023-04-01T01:54:01;205.70;2252.80
26272;DHT22;13997;48.902;12.472;2023-04-01T01:56:28;205.70;2252.80
26272;DHT22;13997;48.902;12.472;2023-04-01T01:58:59;205.70;2252.80
26272;DHT22;13997;48.902;12.472;2023-04-01T02:01:29;205.70;2252.80
26272;DHT22;13997;48.902;12.472;2023-04-01T02:03:55;205.60;2252.80
26272;DHT22;13997;48.902;12.472;2023-04-01T02:06:26;205.60;2252.80
26272;DHT22;13997;48.902;12.472;2023-04-01T02:09:04;205.60;2252.80
26272;DHT22;13997;48.902;12.472;2023-04-01T02:11:36;205.60;2252.80
26272;DHT22;13997;48.902;12.472;2023-04-01T02:14:16;205.60;2252.80
26272;DHT22;13997;48.902;12.472;2023-04-01T02:17:02;205.60;2252.80
26272;DHT22;13997;48.902;12.472;2023-04-01T02:19:38;205.60;2252.80
26272;DHT22;13997;48.902;12.472;2023-04-01T02:22:09;205.60;2252.80
26272;DHT22;13997;48.902;12.472;2023-04-01T02:24:37;205.60;2252.80
26272;DHT22;13997;48.902;12.472;2023-04-01T02:27:03;205.60;2252.80
26272;DHT22;13997;48.902;12.472;2023-04-01T02:29:29;205.60;2252.80
26272;DHT22;13997;48.902;12.472;2023-04-01T02:31:55;205.60;2252.80
26272;DHT22;13997;48.902;12.472;2023-04-01T02:34:23;205.60;2252.80
26272;DHT22;13997;48.902;12.472;2023-04-01T02:36:49;205.60;2252.80
26272;DHT22;13997;48.902;12.472;2023-04-01T02:39:15;205.60;2252.80
26272;DHT22;13997;48.902;12.472;2023-04-01T02:41:43;205.60;2252.80
26272;DHT22;13997;48.902;12.472;2023-04-01T02:44:10;205.60;2252.80
26272;DHT22;13997;48.902;12.472;2023-04-01T02:46:36;205.60;2252.80
26272;DHT22;13997;48.902;12.472;2023-04-01T02:49:02;205.60;2252.80
26272;DHT22;13997;48.902;12.472;2023-04-01T02:51:28;205.60;2252.80
26272;DHT22;13997;48.902;12.472;2023-04-01T02:53:53;205.60;2252.80
26272;DHT22;13997;48.902;12.472;2023-04-01T02:56:19;205.60;2252.80
26272;DHT22;13997;48.902;12.472;2023-04-01T02:58:45;205.60;2252.80
26272;DHT22;13997;48.902;12.472;2023-04-01T03:01:11;205.60;2252.80
26272;DHT22;13997;48.902;12.472;2023-04-01T03:03:37;205.60;2252.80
26272;DHT22;13997;48.902;12.472;2023-04-01T03:06:07;205.50;2252.80
26272;DHT22;13997;48.902;12.472;2023-04-01T03:08:33;205.50;2252.80
26272;DHT22;13997;48.902;12.472;2023-04-01T03:10:58;205.50;2252.80
26272;DHT22;13997;48.902;12.472;2023-04-01T03:13:24;205.50;2252.80
26272;DHT22;13997;48.902;12.472;2023-04-01T03:15:50;205.50;2252.80
26272;DHT22;13997;48.902;12.472;2023-04-01T03:18:15;205.50;2252.80
26272;DHT22;13997;48.902;12.472;2023-04-01T03:20:41;205.50;2252.80
26272;DHT22;13997;48.902;12.472;2023-04-01T03:23:07;205.50;2252.80
26272;DHT22;13997;48.902;12.472;2023-04-01T03:25:33;205.40;2252.80
26272;DHT22;13997;48.902;12.472;2023-04-01T03:27:58;205.40;2252.80
26272;DHT22;13997;48.902;12.472;2023-04-01T03:30:25;205.40;2252.80
26272;DHT22;13997;48.902;12.472;2023-04-01T03:32:51;205.40;2252.80
26272;DHT22;13997;48.902;12.472;2023-04-01T03:35:17;205.40;2252.80
26272;DHT22;13997;48.902;12.472;2023-04-01T03:37:43;205.40;2252.80
26272;DHT22;13997;48.902;12.472;2023-04-01T03:40:09;205.40;2252.80
26272;DHT22;13997;48.902;12.472;2023-04-01T03:42:35;205.40;2252.80
26272;DHT22;13997;48.902;12.472;2023-04-01T03:45:02;205.40;2252.80
26272;DHT22;13997;48.902;12.472;2023-04-01T03:47:28;205.30;2252.80
26272;DHT22;13997;48.902;12.472;2023-04-01T03:49:53;205.30;2252.80
26272;DHT22;13997;48.902;12.472;2023-04-01T03:52:19;205.30;2252.80
26272;DHT22;13997;48.902;12.472;2023-04-01T03:54:44;205.30;2252.80
26272;DHT22;13997;48.902;12.472;2023-04-01T03:57:10;205.30;2252.80
26272;DHT22;13997;48.902;12.472;2023-04-01T03:59:35;205.30;2252.80
26272;DHT22;13997;48.902;12.472;2023-04-01T04:02:01;205.30;2252.80
26272;DHT22;13997;48.902;12.472;2023-04-01T04:04:27;205.30;2252.80
26272;DHT22;13997;48.902;12.472;2023-04-01T04:06:53;205.30;2252.80
26272;DHT22;13997;48.902;12.472;2023-04-01T04:09:19;205.30;2252.80
26272;DHT22;13997;48.902;12.472;2023-04-01T04:11:45;205.20;2252.80
26272;DHT22;13997;48.902;12.472;2023-04-01T04:14:10;205.20;2252.80
26272;DHT22;13997;48.902;12.472;2023-04-01T04:16:36;205.20;2252.80
26272;DHT22;13997;48.902;12.472;2023-04-01T04:19:02;205.20;2252.80
26272;DHT22;13997;48.902;12.472;2023-04-01T04:21:28;205.20;2252.80
26272;DHT22;13997;48.902;12.472;2023-04-01T04:23:54;205.10;2252.80
26272;DHT22;13997;48.902;12.472;2023-04-01T04:26:19;205.20;2252.80
26272;DHT22;13997;48.902;12.472;2023-04-01T04:28:45;205.20;2252.80
26272;DHT22;13997;48.902;12.472;2023-04-01T04:31:11;205.20;2252.80
26272;DHT22;13997;48.902;12.472;2023-04-01T04:33:36;205.20;2252.80
26272;DHT22;13997;48.902;12.472;2023-04-01T04:36:03;205.20;2252.80
26272;DHT22;13997;48.902;12.472;2023-04-01T04:38:29;205.10;2252.80
26272;DHT22;13997;48.902;12.472;2023-04-01T04:40:55;205.10;2252.80
26272;DHT22;13997;48.902;12.472;2023-04-01T04:43:21;205.10;2252.80
26272;DHT22;13997;48.902;12.472;2023-04-01T04:45:47;205.10;2252.80
26272;DHT22;13997;48.902;12.472;2023-04-01T04:48:15;205.10;2252.80
26272;DHT22;13997;48.902;12.472;2023-04-01T04:50:52;205.10;2252.80
26272;DHT22;13997;48.902;12.472;2023-04-01T04:53:19;205.10;2252.80
26272;DHT22;13997;48.902;12.472;2023-04-01T04:55:46;205.10;2252.80
26272;DHT22;13997;48.902;12.472;2023-04-01T04:58:12;205.10;2252.80
26272;DHT22;13997;48.902;12.472;2023-04-01T05:00:37;205.10;2252.80
26272;DHT22;13997;48.902;12.472;2023-04-01T05:03:03;205.10;2252.80
26272;DHT22;13997;48.902;12.472;2023-04-01T05:05:29;205.10;2252.80
26272;DHT22;13997;48.902;12.472;2023-04-01T05:07:54;205.10;2252.80
26272;DHT22;13997;48.902;12.472;2023-04-01T05:10:20;205.10;2252.80
26272;DHT22;13997;48.902;12.472;2023-04-01T05:12:46;205.10;2252.80
26272;DHT22;13997;48.902;12.472;2023-04-01T05:15:11;205.10;2252.80
26272;DHT22;13997;48.902;12.472;2023-04-01T05:17:37;205.10;2252.80
26272;DHT22;13997;48.902;12.472;2023-04-01T05:20:03;205.10;2252.80
26272;DHT22;13997;48.902;12.472;2023-04-01T05:22:29;205.10;2252.80
26272;DHT22;13997;48.902;12.472;2023-04-01T05:24:55;205.10;2252.80
26272;DHT22;13997;48.902;12.472;2023-04-01T05:27:21;205.10;2252.80
26272;DHT22;13997;48.902;12.472;2023-04-01T05:29:46;205.10;2252.80
26272;DHT22;13997;48.902;12.472;2023-04-01T05:32:12;205.10;2252.80
26272;DHT22;13997;48.902;12.472;2023-04-01T05:34:37;205.00;2252.80
26272;DHT22;13997;48.902;12.472;2023-04-01T05:37:03;205.00;2252.80
26272;DHT22;13997;48.902;12.472;2023-04-01T05:39:29;205.00;2252.80
26272;DHT22;13997;48.902;12.472;2023-04-01T05:41:54;205.00;2252.80
26272;DHT22;13997;48.902;12.472;2023-04-01T05:44:20;205.00;2252.80
26272;DHT22;13997;48.902;12.472;2023-04-01T05:46:45;205.10;2252.80
26272;DHT22;13997;48.902;12.472;2023-04-01T05:49:11;205.10;2252.80
26272;DHT22;13997;48.902;12.472;2023-04-01T05:51:37;205.20;2252.80
26272;DHT22;13997;48.902;12.472;2023-04-01T05:54:04;205.20;2252.80
26272;DHT22;13997;48.902;12.472;2023-04-01T05:56:30;205.20;2252.80
26272;DHT22;13997;48.902;12.472;2023-04-01T05:58:56;205.30;2252.80
26272;DHT22;13997;48.902;12.472;2023-04-01T06:01:21;205.30;2252.80
26272;DHT22;13997;48.902;12.472;2023-04-01T06:03:47;205.30;2252.80
26272;DHT22;13997;48.902;12.472;2023-04-01T06:06:32;205.40;2252.80
26272;DHT22;13997;48.902;12.472;2023-04-01T06:09:26;205.40;2252.80
26272;DHT22;13997;48.902;12.472;2023-04-01T06:12:01;205.40;2252.80
26272;DHT22;13997;48.902;12.472;2023-04-01T06:20:33;205.50;2252.80
26272;DHT22;13997;48.902;12.472;2023-04-01T06:29:08;205.60;2252.80
26272;DHT22;13997;48.902;12.472;2023-04-01T07:05:08;230.70;2252.80
26272;DHT22;13997;48.902;12.472;2023-04-01T07:07:52;230.70;2252.80
26272;DHT22;13997;48.902;12.472;2023-04-01T07:10:45;230.80;2252.80
26272;DHT22;13997;48.902;12.472;2023-04-01T07:13:20;230.80;2252.80
26272;DHT22;13997;48.902;12.472;2023-04-01T07:16:16;230.90;2252.80
26272;DHT22;13997;48.902;12.472;2023-04-01T07:19:02;231.00;2252.80
26272;DHT22;13997;48.902;12.472;2023-04-01T07:24:10;231.10;2252.80
26272;DHT22;13997;48.902;12.472;2023-04-01T07:26:38;231.20;2252.80
26272;DHT22;13997;48.902;12.472;2023-04-01T07:29:09;231.20;2252.80
26272;DHT22;13997;48.902;12.472;2023-04-01T07:31:45;231.30;2252.80
26272;DHT22;13997;48.902;12.472;2023-04-01T07:34:23;231.30;2252.80
26272;DHT22;13997;48.902;12.472;2023-04-01T07:40:02;256.00;2252.80
26272;DHT22;13997;48.902;12.472;2023-04-01T07:54:23;256.30;2252.80
26272;DHT22;13997;48.902;12.472;2023-04-01T07:57:08;256.40;2252.80
26272;DHT22;13997;48.902;12.472;2023-04-01T08:05:26;256.60;2252.80
26272;DHT22;13997;48.902;12.472;2023-04-01T08:08:11;256.70;2252.80
26272;DHT22;13997;48.902;12.472;2023-04-01T08:13:35;256.90;2252.80
26272;DHT22;13997;48.902;12.472;2023-04-01T08:16:26;281.60;2278.40
26272;DHT22;13997;48.902;12.472;2023-04-01T08:21:52;281.90;2278.40
26272;DHT22;13997;48.902;12.472;2023-04-01T08:24:33;281.90;2278.40
26272;DHT22;13997;48.902;12.472;2023-04-01T08:27:05;281.90;2278.40
26272;DHT22;13997;48.902;12.472;2023-04-01T08:32:34;281.70;2278.40
26272;DHT22;13997;48.902;12.472;2023-04-01T08:35:21;281.70;2278.40
26272;DHT22;13997;48.902;12.472;2023-04-01T08:37:50;281.60;2278.40
26272;DHT22;13997;48.902;12.472;2023-04-01T08:47:04;281.90;2278.40
26272;DHT22;13997;48.902;12.472;2023-04-01T09:00:38;282.40;2278.40
26272;DHT22;13997;48.902;12.472;2023-04-01T09:06:32;307.50;2304.00
26272;DHT22;13997;48.902;12.472;2023-04-01T09:09:29;307.50;2304.00
26272;DHT22;13997;48.902;12.472;2023-04-01T09:12:39;307.50;2304.00
26272;DHT22;13997;48.902;12.472;2023-04-01T09:17:56;307.40;2304.00
26272;DHT22;13997;48.902;12.472;2023-04-01T09:29:30;282.50;2278.40
26272;DHT22;13997;48.902;12.472;2023-04-01T09:40:21;282.20;2278.40
26272;DHT22;13997;48.902;12.472;2023-04-01T09:43:06;282.20;2278.40
26272;DHT22;13997;48.902;12.472;2023-04-01T09:49:26;282.20;2278.40
26272;DHT22;13997;48.902;12.472;2023-04-01T09:51:37;282.20;2278.40
26272;DHT22;13997;48.902;12.472;2023-04-01T09:57:20;282.40;2278.40
26272;DHT22;13997;48.902;12.472;2023-04-01T10:07:51;282.50;2278.40
26272;DHT22;13997;48.902;12.472;2023-04-01T11:44:00;307.50;2304.00
26272;DHT22;13997;48.902;12.472;2023-04-01T11:46:44;307.50;2304.00
26272;DHT22;13997;48.902;12.472;2023-04-01T11:55:38;307.50;2304.00
26272;DHT22;13997;48.902;12.472;2023-04-01T11:58:34;307.60;2304.00
26272;DHT22;13997;48.902;12.472;2023-04-01T12:03:51;307.60;2304.00
26272;DHT22;13997;48.902;12.472;2023-04-01T12:06:30;307.70;2304.00
26272;DHT22;13997;48.902;12.472;2023-04-01T12:12:12;307.70;2304.00
26272;DHT22;13997;48.902;12.472;2023-04-01T12:14:41;307.70;2304.00
26272;DHT22;13997;48.902;12.472;2023-04-01T12:36:46;281.80;2278.40
26272;DHT22;13997;48.902;12.472;2023-04-01T12:42:12;256.80;2252.80
26272;DHT22;13997;48.902;12.472;2023-04-01T12:50:30;256.70;2252.80
26272;DHT22;13997;48.902;12.472;2023-04-01T12:53:22;256.70;2252.80
26272;DHT22;13997;48.902;12.472;2023-04-01T12:55:50;256.70;2252.80
26272;DHT22;13997;48.902;12.472;2023-04-01T13:15:54;256.40;2252.80
26272;DHT22;13997;48.902;12.472;2023-04-01T13:21:12;256.50;2252.80
26272;DHT22;13997;48.902;12.472;2023-04-01T13:24:06;256.50;2252.80
26272;DHT22;13997;48.902;12.472;2023-04-01T13:26:51;256.50;2252.80
26272;DHT22;13997;48.902;12.472;2023-04-01T13:29:28;256.50;2252.80
26272;DHT22;13997;48.902;12.472;2023-04-01T13:32:27;256.60;2252.80
26272;DHT22;13997;48.902;12.472;2023-04-01T13:35:36;256.50;2252.80
26272;DHT22;13997;48.902;12.472;2023-04-01T13:40:35;256.60;2252.80
26272;DHT22;13997;48.902;12.472;2023-04-01T13:48:49;256.50;2252.80
26272;DHT22;13997;48.902;12.472;2023-04-01T13:51:23;256.40;2252.80
26272;DHT22;13997;48.902;12.472;2023-04-01T13:54:20;256.40;2252.80
26272;DHT22;13997;48.902;12.472;2023-04-01T14:07:58;256.40;2252.80
26272;DHT22;13997;48.902;12.472;2023-04-01T14:13:22;256.50;2252.80
26272;DHT22;13997;48.902;12.472;2023-04-01T14:16:28;256.50;2252.80
26272;DHT22;13997;48.902;12.472;2023-04-01T14:22:25;256.40;2252.80
26272;DHT22;13997;48.902;12.472;2023-04-01T14:28:18;256.20;2252.80
26272;DHT22;13997;48.902;12.472;2023-04-01T14:45:25;256.20;2252.80
26272;DHT22;13997;48.902;12.472;2023-04-01T14:48:21;256.20;2252.80
26272;DHT22;13997;48.902;12.472;2023-04-01T14:50:51;256.10;2252.80
26272;DHT22;13997;48.902;12.472;2023-04-01T14:55:54;256.00;2252.80
26272;DHT22;13997;48.902;12.472;2023-04-01T14:58:38;256.00;2252.80
26272;DHT22;13997;48.902;12.472;2023-04-01T15:01:13;256.00;2252.80
26272;DHT22;13997;48.902;12.472;2023-04-01T15:15:02;256.00;2252.80
26272;DHT22;13997;48.902;12.472;2023-04-01T15:54:12;256.00;2252.80
26272;DHT22;13997;48.902;12.472;2023-04-01T16:05:42;256.00;2252.80
26272;DHT22;13997;48.902;12.472;2023-04-01T16:08:44;256.00;2252.80
26272;DHT22;13997;48.902;12.472;2023-04-01T16:11:31;256.00;2252.80
26272;DHT22;13997;48.902;12.472;2023-04-01T16:14:17;256.00;2252.80
26272;DHT22;13997;48.902;12.472;2023-04-01T16:19:32;256.00;2252.80
26272;DHT22;13997;48.902;12.472;2023-04-01T16:22:32;256.00;2252.80
26272;DHT22;13997;48.902;12.472;2023-04-01T16:25:17;256.00;2252.80
26272;DHT22;13997;48.902;12.472;2023-04-01T16:30:38;231.30;2252.80
26272;DHT22;13997;48.902;12.472;2023-04-01T16:41:46;231.30;2252.80
26272;DHT22;13997;48.902;12.472;2023-04-01T16:44:16;231.30;2252.80
26272;DHT22;13997;48.902;12.472;2023-04-01T16:46:50;231.30;2252.80
26272;DHT22;13997;48.902;12.472;2023-04-01T16:49:39;231.30;2252.80
26272;DHT22;13997;48.902;12.472;2023-04-01T16:55:11;231.30;2252.80
26272;DHT22;13997;48.902;12.472;2023-04-01T16:57:56;231.30;2252.80
26272;DHT22;13997;48.902;12.472;2023-04-01T17:00:37;231.30;2252.80
26272;DHT22;13997;48.902;12.472;2023-04-01T17:19:42;231.20;2252.80
26272;DHT22;13997;48.902;12.472;2023-04-01T17:22:35;231.20;2252.80
26272;DHT22;13997;48.902;12.472;2023-04-01T17:27:57;231.20;2252.80
26272;DHT22;13997;48.902;12.472;2023-04-01T17:30:26;231.10;2252.80
26272;DHT22;13997;48.902;12.472;2023-04-01T17:36:04;231.10;2252.80
26272;DHT22;13997;48.902;12.472;2023-04-01T17:39:01;231.10;2252.80
26272;DHT22;13997;48.902;12.472;2023-04-01T17:58:17;230.90;2252.80
26272;DHT22;13997;48.902;12.472;2023-04-01T18:01:03;230.90;2252.80
26272;DHT22;13997;48.902;12.472;2023-04-01T18:03:54;230.90;2252.80
26272;DHT22;13997;48.902;12.472;2023-04-01T18:17:31;230.90;2252.80
26272;DHT22;13997;48.902;12.472;2023-04-01T18:23:28;230.80;2252.80
26272;DHT22;13997;48.902;12.472;2023-04-01T18:26:05;230.80;2252.80
26272;DHT22;13997;48.902;12.472;2023-04-01T18:28:41;230.80;2252.80
26272;DHT22;13997;48.902;12.472;2023-04-01T18:31:19;230.80;2252.80
26272;DHT22;13997;48.902;12.472;2023-04-01T18:36:49;230.80;2252.80
26272;DHT22;13997;48.902;12.472;2023-04-01T18:39:34;230.80;2252.80
26272;DHT22;13997;48.902;12.472;2023-04-01T18:42:30;230.80;2252.80
26272;DHT22;13997;48.902;12.472;2023-04-01T18:45:17;230.80;2252.80
26272;DHT22;13997;48.902;12.472;2023-04-01T18:53:38;230.80;2252.80
26272;DHT22;13997;48.902;12.472;2023-04-01T18:56:27;230.80;2252.80
26272;DHT22;13997;48.902;12.472;2023-04-01T19:02:14;230.80;2252.80
26272;DHT22;13997;48.902;12.472;2023-04-01T19:04:47;230.80;2252.80
26272;DHT22;13997;48.902;12.472;2023-04-01T19:10:13;230.80;2252.80
26272;DHT22;13997;48.902;12.472;2023-04-01T19:13:04;230.80;2252.80
26272;DHT22;13997;48.902;12.472;2023-04-01T19:15:32;230.80;2252.80
26272;DHT22;13997;48.902;12.472;2023-04-01T19:18:22;230.80;2252.80
26272;DHT22;13997;48.902;12.472;2023-04-01T19:21:21;230.80;2252.80
26272;DHT22;13997;48.902;12.472;2023-04-01T19:24:06;230.80;2252.80
26272;DHT22;13997;48.902;12.472;2023-04-01T19:26:45;230.80;2252.80
26272;DHT22;13997;48.902;12.472;2023-04-01T19:30:00;230.80;2252.80
26272;DHT22;13997;48.902;12.472;2023-04-01T19:32:49;230.80;2252.80
26272;DHT22;13997;48.902;12.472;2023-04-01T19:38:26;230.90;2252.80
26272;DHT22;13997;48.902;12.472;2023-04-01T19:46:51;230.90;2252.80
26272;DHT22;13997;48.902;12.472;2023-04-01T19:49:46;230.90;2252.80
26272;DHT22;13997;48.902;12.472;2023-04-01T19:52:32;230.90;2252.80
26272;DHT22;13997;48.902;12.472;2023-04-01T19:55:29;230.90;2252.80
26272;DHT22;13997;48.902;12.472;2023-04-01T20:04:43;230.80;2252.80
26272;DHT22;13997;48.902;12.472;2023-04-01T20:07:31;230.80;2252.80
26272;DHT22;13997;48.902;12.472;2023-04-01T20:10:09;230.80;2252.80
26272;DHT22;13997;48.902;12.472;2023-04-01T20:15:45;230.70;2252.80
26272;DHT22;13997;48.902;12.472;2023-04-01T20:18:17;230.70;2252.80
26272;DHT22;13997;48.902;12.472;2023-04-01T20:20:57;230.70;2252.80
26272;DHT22;13997;48.902;12.472;2023-04-01T20:23:41;230.70;2252.80
26272;DHT22;13997;48.902;12.472;2023-04-01T20:26:12;230.70;2252.80
26272;DHT22;13997;48.902;12.472;2023-04-01T20:28:42;230.70;2252.80
26272;DHT22;13997;48.902;12.472;2023-04-01T20:34:08;230.70;2252.80
26272;DHT22;13997;48.902;12.472;2023-04-01T20:39:52;230.70;2252.80
26272;DHT22;13997;48.902;12.472;2023-04-01T20:42:34;230.70;2252.80
26272;DHT22;13997;48.902;12.472;2023-04-01T20:45:14;230.60;2252.80
26272;DHT22;13997;48.902;12.472;2023-04-01T20:51:03;230.70;2252.80
26272;DHT22;13997;48.902;12.472;2023-04-01T20:53:43;230.70;2252.80
26272;DHT22;13997;48.902;12.472;2023-04-01T21:50:37;230.50;2252.80
26272;DHT22;13997;48.902;12.472;2023-04-01T22:04:41;230.60;2252.80
26272;DHT22;13997;48.902;12.472;2023-04-01T22:07:19;230.50;2252.80
26272;DHT22;13997;48.902;12.472;2023-04-01T22:21:59;230.60;2252.80
26272;DHT22;13997;48.902;12.472;2023-04-01T22:33:04;230.60;2252.80
26272;DHT22;13997;48.902;12.472;2023-04-01T22:38:28;230.60;2252.80
26272;DHT22;13997;48.902;12.472;2023-04-01T22:41:19;230.60;2252.80
26272;DHT22;13997;48.902;12.472;2023-04-01T22:43:55;230.60;2252.80
26272;DHT22;13997;48.902;12.472;2023-04-01T22:54:23;230.50;2252.80
26272;DHT22;13997;48.902;12.472;2023-04-01T22:57:02;230.50;2252.80
26272;DHT22;13997;48.902;12.472;2023-04-01T22:59:39;230.50;2252.80
26272;DHT22;13997;48.902;12.472;2023-04-01T23:02:31;230.50;2252.80
26272;DHT22;13997;48.902;12.472;2023-04-01T23:05:00;230.50;2252.80
26272;DHT22;13997;48.902;12.472;2023-04-01T23:07:50;230.50;2252.80
26272;DHT22;13997;48.902;12.472;2023-04-01T23:10:24;230.50;2252.80
26272;DHT22;13997;48.902;12.472;2023-04-01T23:12:52;230.50;2252.80
26272;DHT22;13997;48.902;12.472;2023-04-01T23:15:19;230.50;2252.80
26272;DHT22;13997;48.902;12.472;2023-04-01T23:17:53;230.50;2252.80
26272;DHT22;13997;48.902;12.472;2023-04-01T23:28:39;230.60;2252.80
26272;DHT22;13997;48.902;12.472;2023-04-01T23:36:41;230.60;2252.80
26272;DHT22;13997;48.902;12.472;2023-04-01T23:44:53;230.50;2252.80
26272;DHT22;13997;48.902;12.472;2023-04-01T23:47:23;230.40;2252.80
26272;DHT22;13997;48.902;12.472;2023-04-01T23:49:59;230.40;2252.80
26272;DHT22;13997;48.902;12.472;2023-04-01T23:52:30;230.40;2252.80
26272;DHT22;13997;48.902;12.472;2023-04-01T23:54:58;205.70;2252.80
26272;DHT22;13997;48.902;12.472;2023-04-01T23:57:33;205.70;2252.80
